createdAt,value
2018-03-21T00:01:39.821Z,58.40
2018-03-21T00:04:08.078Z,58.40
2018-03-21T00:06:36.329Z,59.50
2018-03-21T00:09:04.721Z,59.80
2018-03-21T00:11:32.962Z,59.80
2018-03-21T00:14:01.230Z,58.70
2018-03-21T00:16:29.463Z,59.40
2018-03-21T00:18:57.694Z,59.60
2018-03-21T00:21:26.173Z,59.20
2018-03-21T00:23:54.408Z,60.00
2018-03-21T00:26:22.760Z,59.90
2018-03-21T00:28:51.013Z,58.60
2018-03-21T00:31:19.248Z,59.50
2018-03-21T00:33:48.245Z,61.10
2018-03-21T00:36:17.265Z,59.40
2018-03-21T00:38:45.902Z,59.40
2018-03-21T00:41:14.265Z,60.00
2018-03-21T00:43:42.606Z,59.40
2018-03-21T00:46:11.023Z,58.70
2018-03-21T00:48:39.262Z,59.80
2018-03-21T00:51:07.521Z,59.80
2018-03-21T00:53:36.555Z,60.40
2018-03-21T00:56:05.521Z,60.50
2018-03-21T00:58:33.781Z,60.40
2018-03-21T01:01:02.226Z,60.90
2018-03-21T01:03:30.457Z,60.10
2018-03-21T01:05:59.070Z,60.10
2018-03-21T01:08:27.305Z,59.90
2018-03-21T01:10:55.541Z,62.00
2018-03-21T01:13:23.838Z,60.70
2018-03-21T01:15:52.197Z,63.10
2018-03-21T01:18:20.773Z,62.80
2018-03-21T01:20:49.014Z,61.80
2018-03-21T01:23:17.241Z,61.10
2018-03-21T01:25:45.483Z,60.40
2018-03-21T01:28:13.877Z,61.50
2018-03-21T01:30:42.105Z,61.50
2018-03-21T01:33:10.343Z,61.00
2018-03-21T01:35:38.600Z,60.30
2018-03-21T01:38:06.829Z,59.80
2018-03-21T01:40:35.069Z,60.90
2018-03-21T01:43:03.463Z,60.30
2018-03-21T01:45:31.790Z,62.10
2018-03-21T01:48:00.094Z,60.90
2018-03-21T01:50:28.434Z,62.40
2018-03-21T01:53:08.558Z,63.40
2018-03-21T01:55:36.828Z,62.50
2018-03-21T01:58:05.094Z,63.50
2018-03-21T02:00:33.322Z,61.00
2018-03-21T02:03:01.593Z,63.90
2018-03-21T02:05:29.837Z,63.70
2018-03-21T02:07:58.086Z,64.50
2018-03-21T02:10:26.761Z,63.90
2018-03-21T02:12:55.082Z,62.50
2018-03-21T02:15:23.322Z,64.20
2018-03-21T02:17:51.582Z,63.70
2018-03-21T02:20:19.847Z,62.30
2018-03-21T02:22:48.065Z,62.20
2018-03-21T02:25:16.349Z,62.00
2018-03-21T02:27:44.585Z,62.30
2018-03-21T02:30:12.823Z,63.40
2018-03-21T02:32:42.491Z,65.70
2018-03-21T02:35:10.730Z,65.20
2018-03-21T02:37:38.983Z,65.20
2018-03-21T02:40:07.254Z,67.50
2018-03-21T02:42:36.259Z,65.70
2018-03-21T02:45:05.278Z,65.30
2018-03-21T02:47:33.538Z,65.20
2018-03-21T02:50:01.793Z,64.30
2018-03-21T02:52:30.033Z,65.50
2018-03-21T02:54:58.589Z,65.40
2018-03-21T02:57:26.873Z,67.30
2018-03-21T02:59:55.123Z,66.50
2018-03-21T03:02:23.382Z,66.80
2018-03-21T03:04:51.690Z,67.20
2018-03-21T03:07:19.935Z,67.50
2018-03-21T03:09:48.197Z,68.50
2018-03-21T03:12:16.549Z,67.20
2018-03-21T03:14:45.561Z,67.10
2018-03-21T03:17:13.966Z,67.00
2018-03-21T03:19:42.209Z,65.40
2018-03-21T03:22:10.649Z,66.00
2018-03-21T03:24:38.919Z,65.20
2018-03-21T03:27:07.157Z,65.10
2018-03-21T03:29:35.505Z,65.30
2018-03-21T03:32:04.533Z,66.40
2018-03-21T03:34:32.774Z,65.90
2018-03-21T03:37:01.250Z,65.80
2018-03-21T03:39:29.551Z,65.60
2018-03-21T03:41:58.009Z,66.10
2018-03-21T03:44:26.254Z,66.40
2018-03-21T03:46:54.510Z,67.90
2018-03-21T03:49:22.749Z,68.60
2018-03-21T03:51:50.993Z,66.60
2018-03-21T03:54:19.652Z,67.10
2018-03-21T03:56:47.894Z,68.50
2018-03-21T03:59:16.362Z,65.90
2018-03-21T04:01:45.712Z,68.00
2018-03-21T04:04:14.054Z,67.00
2018-03-21T04:06:43.084Z,67.80
2018-03-21T04:09:11.346Z,67.50
2018-03-21T04:11:39.589Z,66.60
2018-03-21T04:14:07.833Z,66.00
2018-03-21T04:16:36.093Z,65.80
2018-03-21T04:19:04.337Z,63.80
2018-03-21T04:21:33.345Z,66.80
2018-03-21T04:24:02.063Z,66.80
2018-03-21T04:26:30.299Z,66.20
2018-03-21T04:28:58.547Z,67.90
2018-03-21T04:31:26.809Z,67.30
2018-03-21T04:33:55.057Z,67.30
2018-03-21T04:36:23.297Z,66.30
2018-03-21T04:38:52.325Z,66.50
2018-03-21T04:41:20.629Z,66.40
2018-03-21T04:43:48.866Z,66.70
2018-03-21T04:46:17.461Z,66.80
2018-03-21T04:48:45.697Z,67.50
2018-03-21T04:51:13.947Z,67.60
2018-03-21T04:53:43.017Z,66.70
2018-03-21T04:56:11.261Z,66.00
2018-03-21T04:58:39.506Z,64.80
2018-03-21T05:01:08.334Z,66.30
2018-03-21T05:03:36.575Z,65.90
2018-03-21T05:06:04.812Z,67.60
2018-03-21T05:08:33.182Z,70.00
2018-03-21T05:11:01.525Z,67.50
2018-03-21T05:13:30.532Z,67.50
2018-03-21T05:15:58.910Z,67.40
2018-03-21T05:18:27.905Z,66.80
2018-03-21T05:20:56.542Z,66.80
2018-03-21T05:23:24.810Z,67.10
2018-03-21T05:25:53.050Z,65.90
2018-03-21T05:28:21.290Z,64.90
2018-03-21T05:30:50.133Z,66.00
2018-03-21T05:33:18.372Z,64.90
2018-03-21T05:35:46.624Z,65.70
2018-03-21T05:38:14.885Z,63.90
2018-03-21T05:40:43.134Z,65.70
2018-03-21T05:43:11.374Z,68.30
2018-03-21T05:45:40.451Z,69.80
2018-03-21T05:48:08.763Z,69.60
2018-03-21T05:50:36.942Z,69.80
2018-03-21T05:53:05.573Z,71.10
2018-03-21T05:55:33.821Z,68.20
2018-03-21T05:58:02.066Z,67.30
2018-03-21T06:00:30.331Z,66.80
2018-03-21T06:02:59.638Z,66.70
2018-03-21T06:05:28.642Z,67.10
2018-03-21T06:07:56.908Z,67.10
2018-03-21T06:10:25.138Z,67.40
2018-03-21T06:12:53.382Z,67.00
2018-03-21T06:15:21.881Z,66.80
2018-03-21T06:17:50.176Z,67.30
2018-03-21T06:20:18.398Z,68.10
2018-03-21T06:22:46.673Z,67.80
2018-03-21T06:25:15.677Z,66.90
2018-03-21T06:27:43.917Z,66.80
2018-03-21T06:30:13.813Z,66.20
2018-03-21T06:32:42.054Z,66.10
2018-03-21T06:35:10.293Z,66.10
2018-03-21T06:37:38.613Z,66.10
2018-03-21T06:40:06.862Z,66.00
2018-03-21T06:42:35.869Z,65.50
2018-03-21T06:45:04.134Z,65.40
2018-03-21T06:47:32.386Z,65.30
2018-03-21T06:50:01.471Z,64.10
2018-03-21T06:52:29.674Z,64.00
2018-03-21T06:54:58.918Z,63.90
2018-03-21T06:57:27.158Z,63.80
2018-03-21T06:59:56.087Z,64.30
2018-03-21T07:02:24.325Z,65.20
2018-03-21T07:04:52.793Z,65.90
2018-03-21T07:07:21.821Z,65.70
2018-03-21T07:09:50.081Z,64.90
2018-03-21T07:12:18.322Z,64.80
2018-03-21T07:14:58.641Z,67.50
2018-03-21T07:17:26.938Z,66.40
2018-03-21T07:19:55.118Z,66.30
2018-03-21T07:22:23.382Z,65.60
2018-03-21T07:24:51.774Z,65.40
2018-03-21T07:27:20.013Z,64.70
2018-03-21T07:29:48.289Z,64.20
2018-03-21T07:32:17.281Z,63.60
2018-03-21T07:34:45.513Z,63.60
2018-03-21T07:37:14.064Z,63.80
2018-03-21T07:39:42.406Z,66.10
2018-03-21T07:42:11.409Z,65.20
2018-03-21T07:44:39.674Z,65.00
2018-03-21T07:47:07.906Z,64.30
2018-03-21T07:49:36.145Z,64.20
2018-03-21T07:52:04.596Z,63.90
2018-03-21T07:54:32.831Z,65.00
2018-03-21T07:57:01.089Z,63.50
2018-03-21T07:59:29.639Z,62.90
2018-03-21T08:01:57.876Z,62.80
2018-03-21T08:04:26.112Z,61.70
2018-03-21T08:06:54.889Z,63.30
2018-03-21T08:09:23.901Z,63.20
2018-03-21T08:11:52.142Z,63.20
2018-03-21T08:14:20.405Z,61.90
2018-03-21T08:16:48.669Z,60.80
2018-03-21T08:19:16.909Z,61.10
2018-03-21T08:21:45.502Z,61.20
2018-03-21T08:24:13.737Z,61.80
2018-03-21T08:26:41.966Z,61.70
2018-03-21T08:29:10.251Z,60.00
2018-03-21T08:31:39.685Z,59.40
2018-03-21T08:34:07.929Z,59.20
2018-03-21T08:36:36.181Z,58.20
2018-03-21T08:39:04.423Z,56.90
2018-03-21T08:41:33.430Z,55.40
2018-03-21T08:44:02.759Z,55.50
2018-03-21T08:46:30.997Z,55.50
2018-03-21T08:48:59.245Z,55.60
2018-03-21T08:51:27.502Z,55.20
2018-03-21T08:53:55.737Z,55.10
2018-03-21T08:56:23.978Z,54.50
2018-03-21T08:58:52.234Z,53.60
2018-03-21T09:01:20.474Z,53.10
2018-03-21T09:03:48.718Z,53.80
2018-03-21T09:06:17.033Z,53.30
2018-03-21T09:08:45.582Z,53.80
2018-03-21T09:11:13.809Z,52.50
2018-03-21T09:13:42.061Z,52.90
2018-03-21T09:16:10.336Z,52.60
2018-03-21T09:18:38.561Z,52.30
2018-03-21T09:21:06.831Z,52.20
2018-03-21T09:23:35.222Z,52.30
2018-03-21T09:26:03.642Z,51.90
2018-03-21T09:28:31.915Z,52.30
2018-03-21T09:31:00.158Z,50.40
2018-03-21T09:33:28.386Z,50.80
2018-03-21T09:35:56.654Z,50.50
2018-03-21T09:38:24.877Z,51.30
2018-03-21T09:40:53.123Z,50.00
2018-03-21T09:43:21.900Z,50.10
2018-03-21T09:45:50.129Z,49.20
2018-03-21T09:48:18.366Z,48.90
2018-03-21T09:50:46.867Z,48.80
2018-03-21T09:53:15.180Z,49.00
2018-03-21T09:55:43.406Z,48.40
2018-03-21T09:58:11.661Z,47.70
2018-03-21T10:00:39.931Z,48.40
2018-03-21T10:03:08.381Z,47.80
2018-03-21T10:05:36.642Z,48.90
2018-03-21T10:08:04.882Z,47.80
2018-03-21T10:10:33.185Z,46.70
2018-03-21T10:13:01.965Z,46.50
2018-03-21T10:15:30.201Z,46.70
2018-03-21T10:17:58.449Z,47.00
2018-03-21T10:20:26.730Z,46.70
2018-03-21T10:22:55.091Z,47.10
2018-03-21T10:25:23.455Z,46.30
2018-03-21T10:27:51.709Z,46.10
2018-03-21T10:30:21.173Z,43.80
2018-03-21T10:32:49.406Z,44.50
2018-03-21T10:35:17.722Z,41.10
2018-03-21T10:37:46.049Z,44.70
2018-03-21T10:40:14.385Z,38.40
2018-03-21T10:42:42.660Z,38.90
2018-03-21T10:45:11.121Z,39.50
2018-03-21T10:47:39.369Z,35.60
2018-03-21T10:50:08.379Z,36.00
2018-03-21T10:52:39.036Z,35.60
2018-03-21T10:55:05.381Z,38.00
2018-03-21T10:57:34.962Z,39.40
2018-03-21T11:00:03.185Z,39.60
2018-03-21T11:02:37.317Z,41.10
2018-03-21T11:05:05.601Z,37.10
2018-03-21T11:07:34.011Z,37.40
2018-03-21T11:10:02.649Z,36.10
2018-03-21T11:12:30.903Z,32.40
2018-03-21T11:14:59.146Z,32.40
2018-03-21T11:17:27.810Z,37.40
2018-03-21T11:19:56.205Z,37.50
2018-03-21T11:22:25.602Z,30.10
2018-03-21T11:24:53.849Z,32.40
2018-03-21T11:27:22.088Z,37.10
2018-03-21T11:29:50.335Z,31.80
2018-03-21T11:32:18.588Z,32.90
2018-03-21T11:34:47.057Z,30.60
2018-03-21T11:37:15.300Z,28.80
2018-03-21T11:39:43.651Z,29.70
2018-03-21T11:42:11.936Z,30.70
2018-03-21T11:44:40.210Z,29.50
2018-03-21T11:47:08.792Z,30.30
2018-03-21T11:49:37.034Z,29.40
2018-03-21T11:52:05.340Z,27.60
2018-03-21T11:54:33.758Z,31.80
2018-03-21T11:57:02.753Z,30.20
2018-03-21T11:59:31.786Z,28.10
2018-03-21T12:02:00.433Z,28.10
2018-03-21T12:04:29.466Z,27.00
2018-03-21T12:06:57.900Z,27.00
2018-03-21T12:09:26.158Z,25.10
2018-03-21T12:11:54.669Z,26.10
2018-03-21T12:14:23.078Z,27.60
2018-03-21T12:16:52.545Z,26.30
2018-03-21T12:19:21.563Z,30.00
2018-03-21T12:21:49.801Z,30.00
2018-03-21T12:24:18.574Z,24.50
2018-03-21T12:26:46.833Z,26.00
2018-03-21T12:29:15.069Z,27.80
2018-03-21T12:31:44.126Z,28.00
2018-03-21T12:34:12.362Z,28.00
2018-03-21T12:36:40.609Z,26.10
2018-03-21T12:39:09.247Z,28.30
2018-03-21T12:41:37.473Z,27.50
2018-03-21T12:44:05.720Z,26.70
2018-03-21T12:46:34.363Z,27.30
2018-03-21T12:49:02.741Z,25.00
2018-03-21T12:51:30.990Z,27.00
2018-03-21T12:53:59.261Z,26.50
2018-03-21T12:56:27.508Z,24.40
2018-03-21T12:58:55.749Z,26.10
2018-03-21T13:01:24.026Z,25.70
2018-03-21T13:03:52.274Z,24.10
2018-03-21T13:06:20.705Z,25.40
2018-03-21T13:08:49.213Z,24.60
2018-03-21T13:11:17.822Z,24.20
2018-03-21T13:13:46.825Z,24.20
2018-03-21T13:16:15.573Z,24.20
2018-03-21T13:18:43.897Z,26.10
2018-03-21T13:21:12.161Z,24.40
2018-03-21T13:23:40.617Z,24.70
2018-03-21T13:26:09.905Z,25.70
2018-03-21T13:28:38.153Z,23.30
2018-03-21T13:31:06.729Z,22.60
2018-03-21T13:33:34.983Z,21.50
2018-03-21T13:36:03.270Z,23.80
2018-03-21T13:38:31.565Z,21.40
2018-03-21T13:40:59.811Z,21.60
2018-03-21T13:43:28.052Z,23.50
2018-03-21T13:45:56.318Z,24.50
2018-03-21T13:48:24.558Z,21.70
2018-03-21T13:50:53.126Z,22.00
2018-03-21T13:53:21.537Z,24.00
2018-03-21T13:55:49.790Z,23.40
2018-03-21T13:58:18.035Z,21.70
2018-03-21T14:00:46.297Z,22.10
2018-03-21T14:03:14.534Z,21.60
2018-03-21T14:05:42.777Z,22.40
2018-03-21T14:08:11.815Z,22.50
2018-03-21T14:10:40.067Z,22.40
2018-03-21T14:13:08.842Z,22.60
2018-03-21T14:15:38.297Z,20.50
2018-03-21T14:18:06.639Z,20.50
2018-03-21T14:20:34.875Z,21.60
2018-03-21T14:23:03.113Z,19.00
2018-03-21T14:25:31.365Z,21.20
2018-03-21T14:27:59.856Z,20.30
2018-03-21T14:30:28.111Z,19.70
2018-03-21T14:32:57.117Z,21.80
2018-03-21T14:35:25.365Z,21.70
2018-03-21T14:37:53.922Z,20.20
2018-03-21T14:40:22.154Z,19.10
2018-03-21T14:42:50.402Z,20.70
2018-03-21T14:45:18.668Z,21.80
2018-03-21T14:47:46.912Z,21.30
2018-03-21T14:50:15.158Z,21.00
2018-03-21T14:52:43.534Z,19.70
2018-03-21T14:55:11.788Z,21.60
2018-03-21T14:57:40.048Z,21.20
2018-03-21T15:00:08.694Z,18.80
2018-03-21T15:02:36.926Z,18.40
2018-03-21T15:05:05.173Z,18.60
2018-03-21T15:07:33.506Z,20.20
2018-03-21T15:10:01.755Z,16.20
2018-03-21T15:12:29.993Z,20.00
2018-03-21T15:14:58.384Z,19.60
2018-03-21T15:17:27.394Z,18.60
2018-03-21T15:19:55.641Z,17.90
2018-03-21T15:22:24.107Z,15.00
2018-03-21T15:24:52.342Z,19.50
2018-03-21T15:27:20.585Z,15.00
2018-03-21T15:29:48.865Z,18.80
2018-03-21T15:32:17.132Z,18.80
2018-03-21T15:34:45.388Z,15.00
2018-03-21T15:37:13.741Z,19.30
2018-03-21T15:39:41.979Z,16.70
2018-03-21T15:42:11.793Z,19.30
2018-03-21T15:44:40.152Z,19.30
2018-03-21T15:47:08.374Z,16.40
2018-03-21T15:49:36.673Z,16.70
2018-03-21T15:52:04.946Z,19.90
2018-03-21T15:54:33.192Z,19.40
2018-03-21T15:57:01.854Z,18.60
2018-03-21T15:59:30.222Z,19.20
2018-03-21T16:01:58.449Z,18.60
2018-03-21T16:04:27.493Z,18.70
2018-03-21T16:06:56.234Z,18.60
2018-03-21T16:09:24.393Z,19.50
2018-03-21T16:11:52.646Z,17.20
2018-03-21T16:14:20.992Z,19.80
2018-03-21T16:16:49.398Z,17.10
2018-03-21T16:19:17.813Z,17.70
2018-03-21T16:21:46.088Z,15.70
2018-03-21T16:24:15.085Z,20.40
2018-03-21T16:26:44.191Z,16.60
2018-03-21T16:29:13.273Z,16.50
2018-03-21T16:31:43.044Z,17.30
2018-03-21T16:34:11.270Z,17.30
2018-03-21T16:36:39.526Z,19.10
2018-03-21T16:39:08.533Z,20.20
2018-03-21T16:41:36.774Z,20.20
2018-03-21T16:44:05.050Z,19.90
2018-03-21T16:46:33.282Z,19.80
2018-03-21T16:49:01.614Z,19.40
2018-03-21T16:51:30.138Z,21.10
2018-03-21T16:53:58.371Z,20.60
2018-03-21T16:56:26.612Z,20.40
2018-03-21T16:58:54.890Z,20.70
2018-03-21T17:01:23.138Z,21.20
2018-03-21T17:03:51.410Z,21.00
2018-03-21T17:06:19.662Z,21.40
2018-03-21T17:08:47.901Z,21.60
2018-03-21T17:11:16.145Z,22.00
2018-03-21T17:13:44.549Z,23.10
2018-03-21T17:16:12.790Z,23.60
2018-03-21T17:18:41.030Z,23.20
2018-03-21T17:21:09.311Z,23.10
2018-03-21T17:23:37.553Z,23.00
2018-03-21T17:26:05.797Z,23.60
2018-03-21T17:28:34.905Z,23.40
2018-03-21T17:31:03.158Z,23.40
2018-03-21T17:33:32.168Z,23.80
2018-03-21T17:36:00.622Z,23.60
2018-03-21T17:38:29.621Z,23.70
2018-03-21T17:40:57.862Z,23.70
2018-03-21T17:43:26.133Z,23.90
2018-03-21T17:45:54.382Z,24.50
2018-03-21T17:48:22.640Z,24.40
2018-03-21T17:50:50.975Z,25.10
2018-03-21T17:53:19.217Z,24.80
2018-03-21T17:55:47.537Z,24.90
2018-03-21T17:58:16.127Z,25.00
2018-03-21T18:00:44.606Z,24.90
2018-03-21T18:03:12.993Z,24.80
2018-03-21T18:05:41.388Z,25.40
2018-03-21T18:08:09.628Z,25.30
2018-03-21T18:10:37.878Z,25.50
2018-03-21T18:13:06.234Z,25.80
2018-03-21T18:15:35.284Z,25.70
2018-03-21T18:18:03.565Z,25.70
2018-03-21T18:20:32.353Z,25.50
2018-03-21T18:23:00.659Z,25.50
2018-03-21T18:25:29.828Z,26.20
2018-03-21T18:27:58.225Z,26.10
2018-03-21T18:30:26.465Z,25.70
2018-03-21T18:32:54.713Z,25.40
2018-03-21T18:35:23.898Z,25.70
2018-03-21T18:37:52.180Z,25.60
2018-03-21T18:40:20.552Z,25.80
2018-03-21T18:42:49.875Z,26.30
2018-03-21T18:45:18.116Z,26.20
2018-03-21T18:47:46.361Z,26.90
2018-03-21T18:50:14.617Z,27.30
2018-03-21T18:52:43.030Z,27.20
2018-03-21T18:55:11.299Z,27.60
2018-03-21T18:57:39.553Z,27.90
2018-03-21T19:00:07.913Z,27.90
2018-03-21T19:02:36.157Z,28.30
2018-03-21T19:05:04.994Z,28.90
2018-03-21T19:07:33.230Z,28.90
2018-03-21T19:10:01.469Z,28.80
2018-03-21T19:12:30.256Z,29.20
2018-03-21T19:14:58.482Z,28.70
2018-03-21T19:17:27.490Z,29.00
2018-03-21T19:19:56.623Z,28.90
2018-03-21T19:22:24.846Z,28.90
2018-03-21T19:24:53.852Z,29.00
2018-03-21T19:27:22.361Z,29.00
2018-03-21T19:29:50.585Z,29.00
2018-03-21T19:32:19.583Z,29.60
2018-03-21T19:34:48.609Z,30.30
2018-03-21T19:37:16.847Z,30.20
2018-03-21T19:39:45.087Z,30.30
2018-03-21T19:42:13.348Z,29.80
2018-03-21T19:44:41.756Z,29.90
2018-03-21T19:47:09.993Z,30.20
2018-03-21T19:49:38.325Z,30.00
2018-03-21T19:52:06.575Z,29.80
2018-03-21T19:54:34.813Z,29.80
2018-03-21T19:57:03.081Z,29.60
2018-03-21T19:59:32.086Z,29.90
2018-03-21T20:02:00.317Z,29.90
2018-03-21T20:04:29.162Z,29.80
2018-03-21T20:06:57.396Z,30.00
2018-03-21T20:09:25.668Z,29.60
2018-03-21T20:11:54.017Z,29.70
2018-03-21T20:14:22.261Z,29.50
2018-03-21T20:16:50.501Z,30.00
2018-03-21T20:19:19.529Z,30.20
2018-03-21T20:21:47.769Z,30.20
2018-03-21T20:24:15.993Z,30.00
2018-03-21T20:26:44.258Z,31.30
2018-03-21T20:29:12.501Z,30.80
2018-03-21T20:31:40.731Z,30.90
2018-03-21T20:34:09.417Z,30.80
2018-03-21T20:36:37.760Z,31.40
2018-03-21T20:39:05.953Z,30.70
2018-03-21T20:41:34.227Z,30.60
2018-03-21T20:44:03.222Z,31.10
2018-03-21T20:46:31.451Z,31.00
2018-03-21T20:48:59.729Z,30.80
2018-03-21T20:51:27.970Z,31.10
2018-03-21T20:53:56.205Z,31.40
2018-03-21T20:56:25.457Z,30.70
2018-03-21T20:58:53.734Z,30.50
2018-03-21T21:01:21.974Z,31.00
2018-03-21T21:03:50.243Z,30.70
2018-03-21T21:06:19.387Z,32.30
2018-03-21T21:08:47.601Z,31.70
2018-03-21T21:11:16.634Z,31.00
2018-03-21T21:13:44.930Z,31.00
2018-03-21T21:16:13.169Z,30.70
2018-03-21T21:18:41.772Z,30.60
2018-03-21T21:21:10.009Z,31.00
2018-03-21T21:23:38.246Z,31.40
2018-03-21T21:26:06.968Z,31.10
2018-03-21T21:28:35.173Z,31.60
2018-03-21T21:31:03.414Z,31.20
2018-03-21T21:33:32.455Z,31.40
2018-03-21T21:36:00.685Z,31.30
2018-03-21T21:38:29.690Z,31.30
2018-03-21T21:40:59.025Z,31.10
2018-03-21T21:43:27.265Z,31.00
2018-03-21T21:45:55.550Z,30.80
2018-03-21T21:48:24.114Z,31.90
2018-03-21T21:50:52.366Z,31.40
2018-03-21T21:53:20.601Z,31.10
2018-03-21T21:55:48.867Z,31.30
2018-03-21T21:58:17.097Z,32.00
2018-03-21T22:00:45.338Z,31.60
2018-03-21T22:03:13.829Z,32.20
2018-03-21T22:05:42.082Z,31.70
2018-03-21T22:08:10.330Z,32.30
2018-03-21T22:10:38.587Z,32.40
2018-03-21T22:13:06.826Z,33.00
2018-03-21T22:15:35.057Z,33.00
2018-03-21T22:18:03.398Z,32.20
2018-03-21T22:20:31.794Z,32.10
2018-03-21T22:23:00.029Z,32.20
2018-03-21T22:25:28.622Z,32.10
2018-03-21T22:27:57.269Z,31.80
2018-03-21T22:30:25.502Z,31.90
2018-03-21T22:32:53.765Z,31.90
2018-03-21T22:35:22.001Z,32.00
2018-03-21T22:37:50.238Z,31.90
2018-03-21T22:40:18.497Z,31.80
2018-03-21T22:42:46.733Z,31.90
2018-03-21T22:45:14.969Z,32.00
2018-03-21T22:47:43.290Z,32.60
2018-03-21T22:50:11.525Z,32.30
2018-03-21T22:52:39.758Z,32.60
2018-03-21T22:55:08.017Z,33.00
2018-03-21T22:57:36.253Z,32.50
2018-03-21T23:00:04.488Z,32.60
2018-03-21T23:02:32.746Z,32.80
2018-03-21T23:05:01.746Z,32.70
2018-03-21T23:07:30.737Z,32.90
2018-03-21T23:10:00.070Z,32.40
2018-03-21T23:12:28.306Z,32.40
2018-03-21T23:14:56.538Z,33.40
2018-03-21T23:17:24.793Z,32.70
2018-03-21T23:19:53.030Z,33.10
2018-03-21T23:22:21.266Z,34.80
2018-03-21T23:24:49.525Z,34.00
2018-03-21T23:27:17.757Z,34.00
2018-03-21T23:29:47.051Z,34.00
2018-03-21T23:32:15.786Z,34.00
2018-03-21T23:34:44.029Z,34.40
2018-03-21T23:37:12.270Z,34.20
2018-03-21T23:39:40.941Z,34.20
2018-03-21T23:42:09.180Z,34.40
2018-03-21T23:44:37.418Z,33.70
2018-03-21T23:47:05.682Z,34.60
2018-03-21T23:49:33.926Z,34.00
2018-03-21T23:52:02.168Z,35.30
2018-03-21T23:54:31.254Z,34.10
2018-03-21T23:57:00.267Z,35.50
2018-03-21T23:59:28.501Z,35.50
